Aérodrome :
LOGIN :

S'inscrire | Disclaimer

   EN    FR    IT 

 










Légende :    VFR   VFR Marginal   IFR   IFR Intensif   IFR Très Intensif
Visi : 
Plafond : 
>= 8 km
>= 3000ft
5 à 8 km
1000 à 3000 ft
1500m à 5 km
500 à 1000 ft
800 à 1500m
200 à 500 ft
< 800m
< 200 ft
Symboles :   Orages  Brouillard  Fortes neiges  Fortes précipitations  Vent > 20 kt
SIGMETs :   Divers  Orages  Givrage  Turbulence  Onde Orograph.  Cendres Volcan.







- Altitude de l'aérodrome : 32 ft
- Code IATA : LKZ


EGUL - RAF Lakenheath

DERNIER METAR :
  • 181256Z AUTO 24024G30KT 9999 CLR 22/11 A2974 RMK AO2 PK WND 23033/04 SLP074 T02170114 $

METARs EXPIRÉS :
  • 181156Z AUTO 22023G30KT 9999 CLR 22/12 A2971 RMK AO2 PK WND 23033/31 SLP064 T02150118 10225 20193 52023 $
  • 181111Z AUTO 22026G32KT 9999 SCT026 BKN031 22/14 A2969 RMK AO2 SLP057 $
  • 181056Z AUTO 23018G30KT 9999 BKN023 BKN031 21/14 A2970 RMK AO2 PK WND 22036/01 SLP060 T02070143 $

TAF TAF EGUL
Valide du 18 à 12h jusqu'au 19 à 18h UTC


181213Z 1812/1918 24015G25KT 9999 FEW030 QNH2971INS
TEMPO 1812/1816 24020G30KT
BECMG 1817/1818 21010G15KT 9999 FEW015 SCT035 QNH2982INS
TEMPO 1822/1901 BKN015
BECMG 1905/1906 20010G15KT 9999 BKN015 QNH2979INS
TEMPO 1906/1910 20015G20KT
BECMG 1909/1910 20025G35KT 9999 BKN030 QNH2976INS
TEMPO 1912/1916 21030G40KT TX22/1912Z TN13/1905Z
Pas de NOTAMs connus pour ce terrain.
3 SIGMETs publiés pour la FIR London (EGTT) :
 
Turbulence forte
EGTT SIGMET 08 VALID 181400/181800 EGRR
EGTT LONDON FIR SEV TURB FCST WI N5500 W00232 - N5500 E00458 - N5459 E00458 - N5348 E00354 - N5351 W00234 - N5458 W00234 - N5500 W00232 SFC/FL060 MOV NE 15KT NC=
Onde orographique forte
EGTT SIGMET 07 VALID 181400/181800 EGRR
EGTT LONDON FIR SEV MTW FCST WI N5221 E00156 - N5039 W00347 - N5209 W00411 - N5500 W00420 - N5500 E00203 - N5221 E00156 FL040/240 STNR NC=
Turbulence forte
EGTT SIGMET 06 VALID 181000/181400 EGRR
EGTT LONDON FIR SEV TURB FCST WI N5500 E00300 - N5301 E00313 - N5255 W00026 - N5426 W00139 - N5500 W00051 - N5500 E00300 SFC/FL060 MOV NE 15KT WKN=



MET'MAP, la Météo Aéronautique d'un coup d'oeil ! - Copyright ORBIFLY Décembre 2007 - Disclaimer

ORBIFLY MET'MAP TEAM :

Programmation & Développement : Alexandra Zaïnal
Conception & Développement : Baudouin d'Aumeries
Co-Programmation & Développement : Marc-Olivier Méhu
Soutien technique & logistique : Manuel Goepfert

Contact : metmap@orbifly.com




SOURCES & CREDITS :

   NOAA